Time;durP1;ratioP1;P1;durP2;ratioP2;P2;SDS_P1;SDS_P2;PMS_P1;PMS_P2;Temp;Humidity;BMP_temperature;BMP_pressure;BME280_temperature;BME280_humidity;BME280_pressure;Samples;Min_cycle;Max_cycle;Signal;HPM_P1;HPM_P2
2022/01/19 00:01:42;;;;;;;444.48;24.80;;;;;;;;;;4989393;28;94388;-70
2022/01/19 00:04:09;;;;;;;536.78;30.83;;;;;;;;;;4990819;28;94240;-71
2022/01/19 00:06:35;;;;;;;301.48;31.38;;;;;;;;;;4991124;28;93943;-71
2022/01/19 00:09:02;;;;;;;223.88;26.75;;;;;;;;;;4991136;28;95983;-70
2022/01/19 00:11:29;;;;;;;420.55;26.15;;;;;;;;;;4990597;28;92548;-71
2022/01/19 00:13:55;;;;;;;326.48;24.15;;;;;;;;;;4991587;28;94393;-70
2022/01/19 00:16:21;;;;;;;202.38;25.23;;;;;;;;;;4993129;28;92857;-70
2022/01/19 00:18:48;;;;;;;312.88;24.40;;;;;;;;;;4991246;28;93654;-70
2022/01/19 00:21:15;;;;;;;248.02;24.92;;;;;;;;;;4991233;28;94127;-70
2022/01/19 00:23:41;;;;;;;153.82;26.30;;;;;;;;;;4989032;28;96376;-70
2022/01/19 00:26:08;;;;;;;241.68;34.00;;;;;;;;;;4987156;28;95391;-70
2022/01/19 00:28:34;;;;;;;352.05;25.27;;;;;;;;;;4990022;28;93744;-70
2022/01/19 00:31:01;;;;;;;425.13;26.15;;;;;;;;;;4995654;28;92490;-70
2022/01/19 00:33:27;;;;;;;226.73;23.30;;;;;;;;;;4978822;28;93650;-70
2022/01/19 00:35:54;;;;;;;239.60;23.48;;;;;;;;;;4979734;28;94668;-71
2022/01/19 00:38:20;;;;;;;222.18;22.70;;;;;;;;;;4981562;28;92735;-70
2022/01/19 00:40:47;;;;;;;259.05;26.02;;;;;;;;;;4998020;28;94132;-71
2022/01/19 00:43:14;;;;;;;390.27;26.73;;;;;;;;;;4997643;28;92494;-71
2022/01/19 00:45:41;;;;;;;295.13;23.58;;;;;;;;;;4997243;28;93363;-71
2022/01/19 00:48:23;;;;;;;;;;;;;;;;;;4995870;28;95860;-71
2022/01/19 00:50:51;;;;;;;271.73;23.02;;;;;;;;;;5005954;28;121214;-71
2022/01/19 00:53:17;;;;;;;227.45;20.20;;;;;;;;;;4998244;28;93289;-71
2022/01/19 00:55:43;;;;;;;88.63;18.42;;;;;;;;;;5002491;28;93833;-71
2022/01/19 00:58:10;;;;;;;175.13;22.85;;;;;;;;;;4981060;28;93055;-70
2022/01/19 01:00:36;;;;;;;226.90;27.02;;;;;;;;;;4982035;28;93921;-71
2022/01/19 01:03:04;;;;;;;266.20;24.35;;;;;;;;;;5000993;28;92548;-70
2022/01/19 01:05:31;;;;;;;383.05;28.90;;;;;;;;;;4997573;28;93036;-70
2022/01/19 01:07:57;;;;;;;546.40;33.60;;;;;;;;;;4996366;28;95368;-70
2022/01/19 01:10:24;;;;;;;455.55;29.83;;;;;;;;;;4997100;28;92716;-70
2022/01/19 01:12:53;;;;;;;286.95;24.95;;;;;;;;;;4994087;28;95296;-70
2022/01/19 01:16:01;;;;;;;385.85;30.52;;;;;;;;;;4983000;28;94723;-70
2022/01/19 01:18:18;;;;;;;215.13;19.73;;;;;;;;;;4977968;28;95380;-70
2022/01/19 01:20:47;;;;;;;309.35;25.52;;;;;;;;;;4985635;28;93338;-70
2022/01/19 01:23:14;;;;;;;183.50;21.27;;;;;;;;;;4983286;28;95786;-70
2022/01/19 01:25:41;;;;;;;322.40;26.73;;;;;;;;;;4978642;28;95802;-70
2022/01/19 01:28:07;;;;;;;100.68;19.50;;;;;;;;;;4996113;28;93548;-70
2022/01/19 01:30:34;;;;;;;250.25;26.08;;;;;;;;;;4997395;28;91706;-70
2022/01/19 01:33:01;;;;;;;303.38;25.15;;;;;;;;;;5004091;28;93869;-70
2022/01/19 01:35:27;;;;;;;387.40;28.80;;;;;;;;;;4982301;28;96628;-70
2022/01/19 01:37:54;;;;;;;173.50;22.42;;;;;;;;;;4978076;28;95043;-70
2022/01/19 01:40:22;;;;;;;310.20;25.20;;;;;;;;;;4996282;28;96462;-70
2022/01/19 01:42:49;;;;;;;188.23;22.38;;;;;;;;;;4996067;28;93264;-70
2022/01/19 01:45:18;;;;;;;82.30;18.85;;;;;;;;;;5010747;28;92626;-70
2022/01/19 01:47:50;;;;;;;153.68;21.48;;;;;;;;;;4975128;28;94432;-71
2022/01/19 01:55:48;;;;;;;257.70;26.92;;;;;;;;;;4980278;28;94570;-71
2022/01/19 01:58:14;;;;;;;139.63;21.42;;;;;;;;;;4974762;28;92511;-71
2022/01/19 02:00:47;;;;;;;;;;;;;;;;;;4980605;28;92960;-70
2022/01/19 02:03:16;;;;;;;84.53;20.52;;;;;;;;;;4980398;28;127333;-70
2022/01/19 02:08:36;;;;;;;178.45;24.77;;;;;;;;;;5006183;28;95527;-70
2022/01/19 02:11:34;;;;;;;122.50;23.25;;;;;;;;;;4978019;28;92604;-70
2022/01/19 02:21:36;;;;;;;190.35;23.75;;;;;;;;;;4993930;28;93276;-70
2022/01/19 02:22:20;;;;;;;274.90;23.95;;;;;;;;;;4973040;28;94879;-69
2022/01/19 02:24:48;;;;;;;182.82;24.27;;;;;;;;;;4970921;28;95930;-70
2022/01/19 02:41:16;;;;;;;91.63;23.65;;;;;;;;;;5007407;28;92625;-70
2022/01/19 02:43:46;;;;;;;129.13;25.00;;;;;;;;;;4977564;28;95436;-70
2022/01/19 02:49:15;;;;;;;53.50;20.13;;;;;;;;;;4974876;28;92665;-70
2022/01/19 02:51:43;;;;;;;36.53;21.15;;;;;;;;;;4989651;28;93049;-70
2022/01/19 02:54:13;;;;;;;38.13;22.63;;;;;;;;;;4976822;28;96016;-70
2022/01/19 02:56:42;;;;;;;37.33;20.10;;;;;;;;;;4995521;28;94894;-70
2022/01/19 03:10:14;;;;;;;39.70;19.40;;;;;;;;;;4972853;28;94516;-70
2022/01/19 03:12:41;;;;;;;31.52;20.42;;;;;;;;;;4979261;28;94086;-70
2022/01/19 03:15:08;;;;;;;36.70;21.35;;;;;;;;;;4991874;28;93610;-70
2022/01/19 03:17:34;;;;;;;35.60;20.20;;;;;;;;;;4995019;28;92598;-70
2022/01/19 03:20:01;;;;;;;31.60;19.42;;;;;;;;;;4973458;28;96210;-70
2022/01/19 03:22:34;;;;;;;29.08;19.80;;;;;;;;;;4970315;28;96300;-70
2022/01/19 03:25:02;;;;;;;33.80;19.48;;;;;;;;;;4973329;28;97816;-70
2022/01/19 03:27:28;;;;;;;35.35;21.05;;;;;;;;;;4978813;28;95710;-70
2022/01/19 03:29:55;;;;;;;32.80;19.88;;;;;;;;;;4974235;28;92597;-70
2022/01/19 03:32:22;;;;;;;37.17;21.30;;;;;;;;;;4991106;28;92985;-70
2022/01/19 03:34:48;;;;;;;35.80;19.40;;;;;;;;;;4975668;28;93401;-70
2022/01/19 03:37:15;;;;;;;38.50;20.58;;;;;;;;;;4970421;28;93062;-69
2022/01/19 03:39:41;;;;;;;32.45;20.27;;;;;;;;;;4979846;28;95251;-69
2022/01/19 03:42:08;;;;;;;32.70;19.48;;;;;;;;;;4972733;28;92894;-69
2022/01/19 03:44:34;;;;;;;37.17;18.77;;;;;;;;;;4990511;28;95336;-70
2022/01/19 03:47:02;;;;;;;26.63;18.98;;;;;;;;;;4975486;28;95573;-69
2022/01/19 03:49:33;;;;;;;28.50;17.55;;;;;;;;;;4975145;28;92563;-70
2022/01/19 03:52:03;;;;;;;24.55;18.17;;;;;;;;;;4993516;28;93474;-70
2022/01/19 03:54:33;;;;;;;25.58;18.40;;;;;;;;;;4981201;28;95717;-70
2022/01/19 03:57:02;;;;;;;26.70;18.10;;;;;;;;;;4975755;28;92735;-70
2022/01/19 03:59:30;;;;;;;25.50;18.02;;;;;;;;;;4976951;28;94706;-70
2022/01/19 04:01:57;;;;;;;29.25;17.80;;;;;;;;;;4990454;28;93600;-70
2022/01/19 04:07:08;;;;;;;37.60;18.30;;;;;;;;;;5006660;28;95691;-70
2022/01/19 04:09:38;;;;;;;30.35;19.25;;;;;;;;;;4974593;28;94884;-70
2022/01/19 04:12:06;;;;;;;31.13;18.08;;;;;;;;;;4965957;28;94926;-70
2022/01/19 04:14:33;;;;;;;29.88;18.95;;;;;;;;;;4974498;28;93418;-70
2022/01/19 04:17:04;;;;;;;31.33;19.33;;;;;;;;;;4972981;28;92581;-70
2022/01/19 04:19:43;;;;;;;31.48;19.65;;;;;;;;;;4972749;28;94609;-70
2022/01/19 04:22:17;;;;;;;42.42;20.73;;;;;;;;;;4987228;28;94152;-70
2022/01/19 04:24:44;;;;;;;47.00;21.88;;;;;;;;;;4989323;28;94141;-70
2022/01/19 04:30:04;;;;;;;38.85;21.33;;;;;;;;;;4972699;28;93387;-70
2022/01/19 04:32:47;;;;;;;46.88;20.40;;;;;;;;;;4975917;28;94719;-70
2022/01/19 04:35:18;;;;;;;39.80;20.17;;;;;;;;;;4976521;28;95509;-70
2022/01/19 05:05:29;;;;;;;46.88;22.35;;;;;;;;;;4973665;28;96486;-71
2022/01/19 05:08:02;;;;;;;42.90;22.13;;;;;;;;;;4975834;28;92574;-71
2022/01/19 05:13:27;;;;;;;41.75;22.95;;;;;;;;;;4979421;28;94394;-70
2022/01/19 05:15:53;;;;;;;56.92;26.90;;;;;;;;;;5000827;28;93328;-70
2022/01/19 05:18:22;;;;;;;51.78;24.50;;;;;;;;;;4973030;28;93338;-71
2022/01/19 05:20:48;;;;;;;56.85;25.83;;;;;;;;;;4982128;28;92861;-70
2022/01/19 05:23:50;;;;;;;58.28;28.05;;;;;;;;;;4984243;28;91762;-71
2022/01/19 05:26:16;;;;;;;62.45;28.13;;;;;;;;;;4990354;28;96428;-70
2022/01/19 05:28:43;;;;;;;61.40;28.65;;;;;;;;;;4975621;28;92829;-70
2022/01/19 05:31:10;;;;;;;64.68;29.23;;;;;;;;;;4992938;28;94944;-71
2022/01/19 05:33:37;;;;;;;63.28;30.83;;;;;;;;;;4996202;28;95768;-70
2022/01/19 05:36:04;;;;;;;58.08;29.23;;;;;;;;;;5005552;28;93131;-71
2022/01/19 05:38:53;;;;;;;64.13;32.42;;;;;;;;;;4993455;28;92995;-71
2022/01/19 05:41:30;;;;;;;70.05;32.60;;;;;;;;;;4974363;28;92520;-70
2022/01/19 05:43:56;;;;;;;75.18;33.13;;;;;;;;;;4976013;28;95151;-71
2022/01/19 05:46:23;;;;;;;71.90;32.67;;;;;;;;;;4975257;28;95884;-71
2022/01/19 05:48:50;;;;;;;75.68;34.03;;;;;;;;;;5008406;28;92577;-71
2022/01/19 05:51:17;;;;;;;68.53;34.40;;;;;;;;;;4974401;28;94480;-71
2022/01/19 05:53:43;;;;;;;66.55;30.05;;;;;;;;;;4975246;28;93712;-71
2022/01/19 05:56:11;;;;;;;62.15;32.15;;;;;;;;;;4977207;28;95004;-71
2022/01/19 05:58:51;;;;;;;66.03;29.70;;;;;;;;;;4975619;28;95403;-71
2022/01/19 06:01:18;;;;;;;59.83;29.52;;;;;;;;;;4974552;28;92590;-71
2022/01/19 06:03:44;;;;;;;59.55;30.25;;;;;;;;;;4994545;28;95057;-71
2022/01/19 06:06:31;;;;;;;65.22;31.13;;;;;;;;;;4974539;28;95428;-70
2022/01/19 06:11:56;;;;;;;67.15;31.75;;;;;;;;;;4936956;28;95740;-71
2022/01/19 06:14:23;;;;;;;67.72;31.15;;;;;;;;;;4975611;28;94534;-71
2022/01/19 06:16:50;;;;;;;80.75;32.47;;;;;;;;;;5010406;28;92995;-71
2022/01/19 06:19:19;;;;;;;75.43;34.60;;;;;;;;;;5008206;28;94156;-71
2022/01/19 06:21:46;;;;;;;77.70;32.60;;;;;;;;;;4972764;28;95358;-71
2022/01/19 06:24:12;;;;;;;67.18;30.90;;;;;;;;;;4976173;28;97848;-71
2022/01/19 06:26:38;;;;;;;69.97;31.60;;;;;;;;;;5005649;28;95097;-71
2022/01/19 06:29:05;;;;;;;76.90;30.95;;;;;;;;;;4974331;28;94396;-71
2022/01/19 06:31:31;;;;;;;62.10;31.48;;;;;;;;;;4974986;28;93334;-71
2022/01/19 06:34:01;;;;;;;68.95;31.48;;;;;;;;;;4976179;28;95534;-71
2022/01/19 06:36:44;;;;;;;;;;;;;;;;;;4974263;28;93361;-71
2022/01/19 06:39:25;;;;;;;64.25;29.20;;;;;;;;;;4983947;28;93880;-70
2022/01/19 06:42:03;;;;;;;74.55;31.80;;;;;;;;;;4976063;28;93165;-71
2022/01/19 06:44:29;;;;;;;64.80;31.92;;;;;;;;;;4974203;28;92969;-71
2022/01/19 06:46:55;;;;;;;60.05;30.83;;;;;;;;;;4971327;28;98294;-71
2022/01/19 06:49:22;;;;;;;65.15;31.88;;;;;;;;;;4973948;28;92784;-71
2022/01/19 06:51:50;;;;;;;65.47;32.15;;;;;;;;;;4975886;28;95828;-71
2022/01/19 06:54:16;;;;;;;66.88;32.40;;;;;;;;;;4973133;28;96062;-71
2022/01/19 06:56:42;;;;;;;71.53;32.65;;;;;;;;;;4974111;28;92510;-71
2022/01/19 06:59:27;;;;;;;63.83;31.55;;;;;;;;;;4978475;28;95163;-71
2022/01/19 07:02:04;;;;;;;70.63;32.47;;;;;;;;;;5010811;28;95239;-71
2022/01/19 07:04:47;;;;;;;67.60;33.75;;;;;;;;;;4972796;28;95676;-71
2022/01/19 07:07:17;;;;;;;67.68;33.63;;;;;;;;;;5006697;28;94349;-72
2022/01/19 07:09:57;;;;;;;64.05;31.95;;;;;;;;;;4973100;28;92624;-72
2022/01/19 07:12:26;;;;;;;68.95;34.17;;;;;;;;;;4993575;28;95935;-72
2022/01/19 07:14:53;;;;;;;61.10;33.75;;;;;;;;;;4973594;28;95478;-71
2022/01/19 07:17:23;;;;;;;74.80;34.35;;;;;;;;;;4977824;28;92901;-72
2022/01/19 07:19:50;;;;;;;74.90;33.85;;;;;;;;;;4982109;28;93781;-72
2022/01/19 07:22:17;;;;;;;71.50;33.42;;;;;;;;;;4992814;28;94607;-71
2022/01/19 07:24:46;;;;;;;72.28;35.67;;;;;;;;;;4981701;28;94304;-72
2022/01/19 07:27:12;;;;;;;76.57;35.25;;;;;;;;;;4979544;28;93444;-71
2022/01/19 07:29:39;;;;;;;71.38;33.88;;;;;;;;;;4983011;28;92561;-71
2022/01/19 07:32:10;;;;;;;79.13;37.10;;;;;;;;;;4993146;28;94271;-72
2022/01/19 07:34:37;;;;;;;79.97;39.00;;;;;;;;;;4974698;28;95206;-72
2022/01/19 07:37:06;;;;;;;69.78;34.60;;;;;;;;;;4973357;28;97773;-71
2022/01/19 07:39:33;;;;;;;75.30;38.20;;;;;;;;;;4990324;28;96611;-71
2022/01/19 07:42:00;;;;;;;81.43;39.80;;;;;;;;;;4979264;28;95736;-71
2022/01/19 07:44:46;;;;;;;84.70;37.50;;;;;;;;;;4975657;28;92644;-71
2022/01/19 07:47:41;;;;;;;94.10;40.28;;;;;;;;;;4975559;28;95556;-71
2022/01/19 07:50:15;;;;;;;94.28;43.30;;;;;;;;;;4978301;28;92645;-71
2022/01/19 07:53:00;;;;;;;87.78;38.50;;;;;;;;;;4976398;28;92580;-71
2022/01/19 07:55:49;;;;;;;102.55;42.42;;;;;;;;;;4974536;28;94396;-71
2022/01/19 07:58:34;;;;;;;78.15;39.08;;;;;;;;;;4996664;28;94138;-71
2022/01/19 08:01:30;;;;;;;89.20;39.47;;;;;;;;;;4989384;28;93890;-71
2022/01/19 08:04:14;;;;;;;90.50;40.15;;;;;;;;;;4970539;28;98736;-71
2022/01/19 08:06:41;;;;;;;77.68;39.63;;;;;;;;;;5004136;28;92528;-71
2022/01/19 08:09:08;;;;;;;80.43;39.00;;;;;;;;;;4973518;28;95587;-71
2022/01/19 08:11:36;;;;;;;88.13;39.88;;;;;;;;;;4976978;28;93126;-71
2022/01/19 08:14:20;;;;;;;88.18;41.83;;;;;;;;;;4970449;28;94035;-71
2022/01/19 08:16:46;;;;;;;96.90;44.33;;;;;;;;;;4980666;28;95838;-71
2022/01/19 08:19:14;;;;;;;94.32;43.20;;;;;;;;;;4976988;28;93318;-71
2022/01/19 08:21:40;;;;;;;96.13;43.03;;;;;;;;;;4976823;28;93926;-71
2022/01/19 08:24:07;;;;;;;101.63;44.03;;;;;;;;;;5005806;28;93281;-71
2022/01/19 08:26:34;;;;;;;97.40;42.25;;;;;;;;;;5001839;28;93238;-70
2022/01/19 08:29:07;;;;;;;93.55;44.95;;;;;;;;;;4968958;28;95231;-70
2022/01/19 08:31:34;;;;;;;108.25;45.95;;;;;;;;;;4972271;28;92565;-70
2022/01/19 08:34:09;;;;;;;97.63;40.85;;;;;;;;;;4989434;28;92819;-70
2022/01/19 08:36:55;;;;;;;107.22;46.70;;;;;;;;;;4986488;28;94528;-71
2022/01/19 08:39:30;;;;;;;108.70;47.13;;;;;;;;;;4970063;28;92522;-71
2022/01/19 08:41:57;;;;;;;99.57;47.13;;;;;;;;;;5005970;28;94599;-71
2022/01/19 08:44:24;;;;;;;102.35;45.90;;;;;;;;;;4972202;28;95481;-71
2022/01/19 08:47:02;;;;;;;104.97;47.30;;;;;;;;;;4973598;28;93298;-71
2022/01/19 08:50:23;;;;;;;100.72;45.60;;;;;;;;;;4971756;28;93217;-71
2022/01/19 08:53:05;;;;;;;96.63;46.38;;;;;;;;;;4975294;28;93563;-71
2022/01/19 08:55:45;;;;;;;95.53;46.40;;;;;;;;;;4977792;28;95852;-71
2022/01/19 08:58:13;;;;;;;90.82;45.80;;;;;;;;;;4992922;28;93578;-71
2022/01/19 09:00:44;;;;;;;88.78;44.30;;;;;;;;;;4993832;28;92473;-71
2022/01/19 09:03:11;;;;;;;94.18;45.40;;;;;;;;;;4994645;28;94156;-71
2022/01/19 09:05:38;;;;;;;107.30;47.67;;;;;;;;;;4995242;28;93174;-71
2022/01/19 09:08:05;;;;;;;96.22;46.17;;;;;;;;;;4993692;28;92456;-71
2022/01/19 09:10:31;;;;;;;96.95;45.75;;;;;;;;;;4996710;28;93000;-71
2022/01/19 09:13:02;;;;;;;109.82;50.58;;;;;;;;;;4993777;28;93378;-71
2022/01/19 09:15:28;;;;;;;89.97;46.47;;;;;;;;;;4993102;28;93506;-70
2022/01/19 09:17:55;;;;;;;109.93;49.67;;;;;;;;;;4992378;28;93670;-70
2022/01/19 09:20:21;;;;;;;97.20;45.92;;;;;;;;;;4987553;28;95488;-70
2022/01/19 09:22:49;;;;;;;104.95;48.65;;;;;;;;;;4990191;28;96609;-70
2022/01/19 09:25:15;;;;;;;102.45;46.92;;;;;;;;;;4989821;28;94583;-69
2022/01/19 09:27:42;;;;;;;99.15;46.50;;;;;;;;;;4989568;28;94604;-69
2022/01/19 09:30:10;;;;;;;106.18;49.17;;;;;;;;;;4991844;28;94236;-69
2022/01/19 09:32:36;;;;;;;96.43;45.53;;;;;;;;;;4994562;28;94230;-69
2022/01/19 09:35:09;;;;;;;95.63;46.70;;;;;;;;;;4995507;28;94719;-71
2022/01/19 09:37:36;;;;;;;96.28;46.72;;;;;;;;;;4992537;28;94293;-71
2022/01/19 09:40:22;;;;;;;93.75;45.63;;;;;;;;;;4995869;28;94383;-71
2022/01/19 09:42:50;;;;;;;85.70;42.70;;;;;;;;;;4995523;28;94289;-71
2022/01/19 09:45:16;;;;;;;79.65;43.65;;;;;;;;;;4990185;28;95884;-72
2022/01/19 09:47:42;;;;;;;77.25;42.22;;;;;;;;;;4991157;28;93630;-70
2022/01/19 09:50:09;;;;;;;88.38;46.20;;;;;;;;;;4987121;28;95561;-70
2022/01/19 09:52:38;;;;;;;95.85;46.05;;;;;;;;;;4990889;28;94071;-70
2022/01/19 09:55:04;;;;;;;82.22;44.03;;;;;;;;;;4991554;28;93522;-70
2022/01/19 09:57:32;;;;;;;89.47;43.13;;;;;;;;;;4996729;28;93273;-70
2022/01/19 09:59:59;;;;;;;93.30;44.15;;;;;;;;;;4994731;28;94094;-70
2022/01/19 10:02:25;;;;;;;94.82;47.15;;;;;;;;;;4994145;28;93699;-70
2022/01/19 10:05:04;;;;;;;81.57;43.20;;;;;;;;;;4991536;28;92935;-70
2022/01/19 10:07:30;;;;;;;76.50;41.20;;;;;;;;;;4992573;28;92604;-70
2022/01/19 10:09:58;;;;;;;83.05;44.20;;;;;;;;;;4995779;28;94934;-70
2022/01/19 10:18:11;;;;;;;73.50;39.47;;;;;;;;;;4993305;28;93208;-71
2022/01/19 10:20:38;;;;;;;58.22;32.88;;;;;;;;;;4995476;28;93798;-70
2022/01/19 10:23:05;;;;;;;67.57;38.22;;;;;;;;;;4992220;28;92943;-70
2022/01/19 10:25:48;;;;;;;77.15;39.15;;;;;;;;;;4994137;28;94051;-70
2022/01/19 10:28:15;;;;;;;72.32;38.30;;;;;;;;;;4991834;28;92365;-70
2022/01/19 10:30:41;;;;;;;77.07;40.78;;;;;;;;;;4989182;28;93971;-70
2022/01/19 10:33:07;;;;;;;70.43;40.15;;;;;;;;;;4989280;28;93725;-71
2022/01/19 10:35:38;;;;;;;78.90;43.63;;;;;;;;;;4989297;28;96212;-71
2022/01/19 10:38:15;;;;;;;76.07;41.00;;;;;;;;;;4988204;28;96522;-71
2022/01/19 10:41:01;;;;;;;69.22;40.28;;;;;;;;;;4991956;28;93610;-71
2022/01/19 10:43:29;;;;;;;70.25;38.58;;;;;;;;;;4987723;28;92964;-71
2022/01/19 10:45:58;;;;;;;73.38;41.42;;;;;;;;;;4991063;28;94022;-70
2022/01/19 10:48:29;;;;;;;69.65;39.13;;;;;;;;;;4980488;28;92950;-69
2022/01/19 10:51:05;;;;;;;67.47;37.38;;;;;;;;;;4997090;28;94019;-70
2022/01/19 10:53:31;;;;;;;69.93;39.53;;;;;;;;;;4991264;28;94098;-71
2022/01/19 10:55:57;;;;;;;75.43;39.75;;;;;;;;;;4994356;28;93032;-69
2022/01/19 10:58:24;;;;;;;71.45;37.47;;;;;;;;;;4997714;28;94166;-69
2022/01/19 11:00:51;;;;;;;69.13;39.05;;;;;;;;;;4996555;28;96576;-70
2022/01/19 11:03:18;;;;;;;76.78;42.05;;;;;;;;;;4990232;28;92561;-70
2022/01/19 11:05:46;;;;;;;64.82;35.10;;;;;;;;;;4994397;28;94342;-70
2022/01/19 11:08:14;;;;;;;71.43;40.67;;;;;;;;;;4997003;28;94689;-70
2022/01/19 11:10:40;;;;;;;68.35;40.40;;;;;;;;;;4989621;28;94523;-70
2022/01/19 11:13:13;;;;;;;80.60;39.42;;;;;;;;;;4992723;28;92488;-70
2022/01/19 11:15:42;;;;;;;67.15;38.90;;;;;;;;;;4990389;28;92503;-70
2022/01/19 11:18:08;;;;;;;67.97;36.53;;;;;;;;;;4988599;28;93270;-70
2022/01/19 11:20:46;;;;;;;64.78;39.60;;;;;;;;;;4986042;28;94026;-70
2022/01/19 11:23:31;;;;;;;63.40;39.50;;;;;;;;;;4994670;28;93248;-70
2022/01/19 11:26:01;;;;;;;57.08;38.50;;;;;;;;;;4984638;28;95413;-70
2022/01/19 11:28:33;;;;;;;61.40;38.05;;;;;;;;;;4990220;28;94992;-72
2022/01/19 11:31:05;;;;;;;52.83;34.90;;;;;;;;;;4997108;28;92481;-71
2022/01/19 11:33:38;;;;;;;61.40;37.08;;;;;;;;;;4989031;28;94171;-71
2022/01/19 11:36:05;;;;;;;;;;;;;;;;;;4995190;28;92487;-71
2022/01/19 11:38:43;;;;;;;56.70;31.67;;;;;;;;;;4988905;28;123671;-71
2022/01/19 11:41:09;;;;;;;52.60;34.22;;;;;;;;;;4992044;28;94520;-72
2022/01/19 11:43:37;;;;;;;55.17;35.50;;;;;;;;;;4991091;28;93084;-71
2022/01/19 11:46:05;;;;;;;51.63;35.70;;;;;;;;;;4991271;28;93856;-71
2022/01/19 11:48:35;;;;;;;52.25;35.85;;;;;;;;;;4996051;28;94700;-71
2022/01/19 11:51:21;;;;;;;57.28;35.58;;;;;;;;;;4987480;28;95910;-71
2022/01/19 11:53:58;;;;;;;59.60;36.67;;;;;;;;;;4992724;28;95628;-73
2022/01/19 11:56:24;;;;;;;57.92;33.08;;;;;;;;;;4991851;28;93485;-71
2022/01/19 11:59:04;;;;;;;58.40;38.35;;;;;;;;;;4989452;28;94064;-72
2022/01/19 12:01:30;;;;;;;61.83;38.63;;;;;;;;;;4988423;28;94002;-71
2022/01/19 12:04:14;;;;;;;53.85;37.88;;;;;;;;;;4989227;28;94179;-70
2022/01/19 12:06:42;;;;;;;56.10;37.78;;;;;;;;;;4990287;28;93771;-71
2022/01/19 12:09:12;;;;;;;56.83;36.22;;;;;;;;;;4990722;28;93601;-71
2022/01/19 12:11:45;;;;;;;56.38;37.35;;;;;;;;;;4990190;28;92648;-71
2022/01/19 12:16:53;;;;;;;56.63;36.92;;;;;;;;;;4992468;28;126130;-71
2022/01/19 12:19:23;;;;;;;61.65;35.15;;;;;;;;;;4994503;28;96851;-71
2022/01/19 12:21:51;;;;;;;58.70;36.65;;;;;;;;;;4988734;28;94530;-71
2022/01/19 12:24:32;;;;;;;58.03;36.00;;;;;;;;;;4985489;28;92505;-72
2022/01/19 12:27:04;;;;;;;53.95;32.85;;;;;;;;;;4991155;28;93027;-71
2022/01/19 12:29:34;;;;;;;51.47;34.70;;;;;;;;;;4991354;28;94564;-71
2022/01/19 12:32:00;;;;;;;57.17;34.90;;;;;;;;;;4989987;28;93012;-72
2022/01/19 12:34:39;;;;;;;58.70;36.05;;;;;;;;;;4991119;28;93817;-72
2022/01/19 12:37:05;;;;;;;58.25;34.28;;;;;;;;;;4990007;28;94256;-71
2022/01/19 12:39:33;;;;;;;51.13;33.33;;;;;;;;;;4993844;28;92579;-72
2022/01/19 12:42:00;;;;;;;50.42;32.88;;;;;;;;;;4991805;28;96447;-71
2022/01/19 12:44:45;;;;;;;56.03;34.63;;;;;;;;;;4991502;28;92496;-71
2022/01/19 12:47:24;;;;;;;53.85;33.17;;;;;;;;;;4995029;28;94248;-72
2022/01/19 12:49:52;;;;;;;45.85;29.98;;;;;;;;;;4990553;28;93479;-71
2022/01/19 12:52:19;;;;;;;57.65;33.90;;;;;;;;;;4982394;28;94479;-72
2022/01/19 12:54:45;;;;;;;53.50;35.25;;;;;;;;;;4991653;28;94274;-71
2022/01/19 12:57:15;;;;;;;54.53;34.30;;;;;;;;;;4987722;28;93818;-70
2022/01/19 12:59:43;;;;;;;50.10;34.25;;;;;;;;;;4991566;28;92902;-70
2022/01/19 13:02:12;;;;;;;48.78;31.25;;;;;;;;;;4989431;28;94638;-70
2022/01/19 13:04:40;;;;;;;50.65;34.80;;;;;;;;;;4983731;28;92562;-70
2022/01/19 13:07:16;;;;;;;53.70;35.63;;;;;;;;;;4987218;28;95102;-70
2022/01/19 13:10:03;;;;;;;53.03;34.75;;;;;;;;;;4995016;28;94675;-70
2022/01/19 13:12:34;;;;;;;49.15;34.72;;;;;;;;;;4984498;28;92555;-70
2022/01/19 13:15:01;;;;;;;49.17;32.83;;;;;;;;;;5000001;28;93338;-70
2022/01/19 13:17:38;;;;;;;53.38;31.45;;;;;;;;;;4993051;28;95661;-70
2022/01/19 13:20:32;;;;;;;52.58;34.25;;;;;;;;;;4994162;28;92512;-70
2022/01/19 13:22:59;;;;;;;53.28;32.25;;;;;;;;;;4991989;28;94701;-70
2022/01/19 13:25:29;;;;;;;56.05;35.08;;;;;;;;;;4984689;28;92186;-70
2022/01/19 13:27:57;;;;;;;47.45;33.85;;;;;;;;;;4993478;28;93177;-70
2022/01/19 13:30:24;;;;;;;52.22;33.20;;;;;;;;;;4989485;28;93371;-70
2022/01/19 13:32:52;;;;;;;49.60;31.02;;;;;;;;;;4988868;28;95498;-70
2022/01/19 13:35:19;;;;;;;53.60;34.05;;;;;;;;;;4992064;28;97021;-70
2022/01/19 13:37:47;;;;;;;44.92;32.13;;;;;;;;;;4991932;28;94069;-70
2022/01/19 13:40:16;;;;;;;53.25;33.05;;;;;;;;;;4993664;28;92505;-70
2022/01/19 13:42:42;;;;;;;52.95;34.45;;;;;;;;;;4993500;28;94428;-70
2022/01/19 13:45:19;;;;;;;54.08;34.13;;;;;;;;;;4992804;28;94313;-70
2022/01/19 13:48:43;;;;;;;50.05;30.13;;;;;;;;;;4994817;28;95921;-70
2022/01/19 13:50:42;;;;;;;50.03;32.78;;;;;;;;;;4982655;28;93028;-70
2022/01/19 13:53:09;;;;;;;52.72;32.10;;;;;;;;;;4992008;28;92915;-70
2022/01/19 13:55:36;;;;;;;57.22;34.38;;;;;;;;;;4993047;28;92959;-70
2022/01/19 13:58:09;;;;;;;52.13;34.28;;;;;;;;;;4993298;28;96783;-70
2022/01/19 14:00:36;;;;;;;41.97;29.38;;;;;;;;;;4987985;28;92559;-70
2022/01/19 14:03:04;;;;;;;48.25;34.70;;;;;;;;;;4992033;28;93990;-71
2022/01/19 14:05:38;;;;;;;56.33;32.70;;;;;;;;;;4992317;28;94839;-72
2022/01/19 14:08:05;;;;;;;59.13;35.38;;;;;;;;;;4993198;28;93956;-71
2022/01/19 14:10:38;;;;;;;56.80;33.17;;;;;;;;;;4991051;28;96272;-71
2022/01/19 14:13:21;;;;;;;59.33;32.78;;;;;;;;;;4996928;28;93099;-71
2022/01/19 14:15:47;;;;;;;48.53;31.30;;;;;;;;;;4992280;28;93386;-70
2022/01/19 14:18:14;;;;;;;58.65;32.40;;;;;;;;;;4993664;28;94011;-71
2022/01/19 14:20:40;;;;;;;57.55;34.22;;;;;;;;;;4991624;28;93087;-72
2022/01/19 14:23:11;;;;;;;54.10;32.78;;;;;;;;;;5002148;28;95184;-72
2022/01/19 14:25:38;;;;;;;53.05;33.30;;;;;;;;;;4992330;28;93565;-72
2022/01/19 14:28:14;;;;;;;47.60;31.63;;;;;;;;;;4992635;28;92568;-71
2022/01/19 14:30:42;;;;;;;56.38;34.90;;;;;;;;;;4996262;28;93465;-70
2022/01/19 14:33:28;;;;;;;55.17;33.13;;;;;;;;;;4993306;28;92532;-70
2022/01/19 14:35:56;;;;;;;54.83;34.13;;;;;;;;;;4992634;28;93133;-70
2022/01/19 14:38:31;;;;;;;61.03;34.67;;;;;;;;;;4993645;28;93342;-70
2022/01/19 14:41:05;;;;;;;60.92;33.65;;;;;;;;;;4998551;28;92124;-70
2022/01/19 14:43:42;;;;;;;54.00;33.28;;;;;;;;;;4992295;28;92529;-70
2022/01/19 14:46:12;;;;;;;53.88;31.77;;;;;;;;;;4992870;28;94584;-70
2022/01/19 14:48:45;;;;;;;52.67;32.42;;;;;;;;;;4989791;28;95356;-70
2022/01/19 14:51:16;;;;;;;55.80;32.25;;;;;;;;;;4994906;28;95427;-70
2022/01/19 14:53:43;;;;;;;44.97;29.77;;;;;;;;;;4991741;28;92519;-70
2022/01/19 14:56:09;;;;;;;58.28;32.47;;;;;;;;;;4991748;28;93404;-70
2022/01/19 14:58:36;;;;;;;67.50;32.58;;;;;;;;;;4992123;28;94357;-70
2022/01/19 15:01:02;;;;;;;59.00;32.42;;;;;;;;;;4992492;28;92600;-70
2022/01/19 15:03:29;;;;;;;49.67;32.38;;;;;;;;;;4991099;28;93179;-70
2022/01/19 15:05:56;;;;;;;65.93;33.00;;;;;;;;;;4992778;28;92874;-70
2022/01/19 15:08:23;;;;;;;52.00;31.55;;;;;;;;;;4992312;28;92491;-70
2022/01/19 15:10:49;;;;;;;61.13;32.58;;;;;;;;;;4990942;28;93340;-70
2022/01/19 15:13:15;;;;;;;75.75;37.20;;;;;;;;;;4994562;28;95751;-70
2022/01/19 15:15:42;;;;;;;59.35;32.13;;;;;;;;;;4991995;28;96651;-70
2022/01/19 15:18:08;;;;;;;48.03;31.23;;;;;;;;;;4991518;28;94203;-70
2022/01/19 15:20:36;;;;;;;59.55;31.75;;;;;;;;;;4991821;28;92559;-70
2022/01/19 15:23:03;;;;;;;58.20;31.90;;;;;;;;;;4992197;28;94003;-70
2022/01/19 15:25:32;;;;;;;57.50;32.65;;;;;;;;;;4990622;28;94531;-70
2022/01/19 15:27:59;;;;;;;67.50;32.17;;;;;;;;;;4991757;28;92595;-70
2022/01/19 15:30:29;;;;;;;50.63;29.48;;;;;;;;;;4992134;28;94074;-71
2022/01/19 15:32:56;;;;;;;50.17;29.98;;;;;;;;;;4990804;28;94116;-70
2022/01/19 15:35:23;;;;;;;54.22;30.52;;;;;;;;;;4994187;28;92476;-70
2022/01/19 15:37:51;;;;;;;58.03;27.75;;;;;;;;;;4989093;28;96123;-70
2022/01/19 15:40:18;;;;;;;63.78;31.58;;;;;;;;;;4991343;28;92553;-71
2022/01/19 15:43:00;;;;;;;44.33;27.08;;;;;;;;;;4991609;28;94182;-68
2022/01/19 15:45:29;;;;;;;56.95;29.05;;;;;;;;;;4989847;28;93985;-70
2022/01/19 15:47:57;;;;;;;42.08;26.58;;;;;;;;;;4991429;28;94684;-70
2022/01/19 15:50:25;;;;;;;50.50;26.30;;;;;;;;;;4991456;28;94712;-70
2022/01/19 15:52:51;;;;;;;45.80;26.70;;;;;;;;;;4990783;28;94522;-70
2022/01/19 15:55:17;;;;;;;50.75;27.20;;;;;;;;;;4991771;28;91726;-71
2022/01/19 15:58:04;;;;;;;50.15;26.95;;;;;;;;;;4994304;28;93375;-70
2022/01/19 16:00:31;;;;;;;45.97;26.92;;;;;;;;;;4989954;28;92588;-70
2022/01/19 16:02:57;;;;;;;52.42;26.35;;;;;;;;;;4989846;28;95589;-70
2022/01/19 16:05:24;;;;;;;44.00;24.25;;;;;;;;;;4991515;28;94210;-70